Norwegian Pearl — C6VG7 — position and weather

sailwx.info

Track history (hours):
 
Tides and Currents Weather Stations Pressure Air Temp Water Temp Dewpoint Dewpoint Depression Visibility Wind Speed Wind Dir Waves Ship Positions

Norwegian Pearl

Last reported at 2017-Oct-20 02:00 UTC. Time now 2017-Oct-20 03:38 UTC.
Position N 22°36' W 085°54'.

Type: Ship. MMSI: 309653000.

Wind from 050 at 30 knots

Barometer 1014.6 mb
Air temperature 28.0 ° C
Visibility: greater than 5.4 NM
Water temperature 30.0 ° C

Date/timePositionNaut miles runAvg speedWind from/ knotsBaromVisibWave heightAir tempDewpointWater temp
2017-Oct-20 02:00N 22°36' W 085°54'1313.2 050 / 301014.6 5.4 28.0 30.0
2017-Oct-20 01:00N 22°24' W 085°48'2929.2 050 / 291013.7 5.4 28.0 30.0
2017-Oct-20 00:00N 22°00' W 085°30'2121.2 060 / 291012.3 5.4 27.9 30.0
2017-Oct-19 23:00N 21°42' W 085°18'2121.2 040 / 181012.3 5.4 27.9 30.0
2017-Oct-19 22:00N 21°24' W 085°06'2120.6 030 / 101012.3 5.4 27.9 30.0
2017-Oct-19 21:00N 21°12' W 084°48'1616.4 070 / 151012.3 5.4 27.9 30.0
2017-Oct-19 20:00N 21°00' W 084°36'2524.6 040 / 151012.3 5.4 27.9 30.0
2017-Oct-19 19:00N 20°42' W 084°18'2524.7 060 / 101012.6 5.4 28.4 30.0
2017-Oct-19 18:00N 20°24' W 084°00'2120.7 060 / 131013.2 5.4 28.0 30.0
2017-Oct-19 17:00N 20°12' W 083°42'7919.7 070 / 101013.9 5.4 27.9 30.0
2017-Oct-19 13:00N 19°12' W 082°48'7474.0 070 / 161012.9 5.4 28.0 30.0
2017-Oct-19 12:00N 18°00' W 082°30'4949.3 070 / 321011.2 5.4 27.6 30.0
2017-Oct-19 11:00N 18°48' W 082°18'1716.5 070 / 321011.2 5.4 27.6 30.0
2017-Oct-19 10:00N 18°36' W 082°06'1716.5 050 / 321011.2 5.4 27.6 30.0
2017-Oct-19 09:00N 18°24' W 081°54'1716.5 070 / 221011.2 5.4 27.6 30.0
2017-Oct-19 08:00N 18°12' W 081°42'1716.6 060 / 221011.2 5.4 27.6 30.0
2017-Oct-19 07:00N 18°00' W 081°30'1716.6 070 / 181011.6 5.4 28.8 30.0
2017-Oct-19 06:00N 17°48' W 081°18'7069.6 060 / 221012.5 5.4 28.8 30.0
2017-Oct-19 05:00N 17°36' W 080°06'4747.3 060 / 221012.9 5.4 28.8 30.0
2017-Oct-19 04:00N 17°24' W 080°54'1716.6 050 / 231013.0 5.4 29.0 30.0
2017-Oct-19 03:00N 17°12' W 080°42'2121.0 060 / 301012.8 5.4 29.0 30.0
2017-Oct-19 02:00N 17°00' W 080°24'1716.6 060 / 201012.4 5.4 29.0 30.0
2017-Oct-19 01:00N 16°48' W 080°12'2121.4 080 / 241011.6 5.4 29.2 30.0
2017-Oct-19 00:00N 16°30' W 080°00'1716.6 070 / 241009.0 5.4 29.2 30.0
2017-Oct-18 23:00N 16°18' W 079°48'2121.4 070 / 241009.0 5.4 29.2 30.0
2017-Oct-18 22:00N 16°00' W 079°36'3014.8 070 / 271009.0 5.4 29.2 30.0
2017-Oct-18 20:00N 15°36' W 079°18'1716.7 080 / 271008.4 5.4 29.2 30.0
2017-Oct-18 19:00N 15°24' W 079°06'1918.9 090 / 301008.9 5.4 29.2 30.0
2017-Oct-18 18:00N 15°06' W 079°00'1716.7 070 / 341009.6 5.4 28.7 30.0
2017-Oct-18 17:00N 14°54' W 078°48'6416.1 080 / 311010.6 5.4 29.2 30.0
2017-Oct-18 13:00N 14°00' W 078°12'2121.4 080 / 371007.5 10.0 30.0
2017-Oct-18 12:00N 13°42' W 078°00'1918.9 080 / 371007.5 10.0 30.0
2017-Oct-18 11:00N 13°24' W 077°54'1716.7 070 / 371007.5 10.0 30.0
2017-Oct-18 10:00N 13°12' W 077°42'2121.5 070 / 351007.2 5.4 28.7 30.0
2017-Oct-18 09:00N 12°54' W 077°30'1313.4 070 / 351007.2 5.4 28.7 30.0
2017-Oct-18 08:00N 12°42' W 077°24'2121.5 070 / 351007.2 5.4 28.7 30.0
2017-Oct-18 07:00N 12°24' W 077°12'2121.5 070 / 311007.0 5.4 28.7 30.0
2017-Oct-18 06:00N 12°06' W 077°00'6421.5 070 / 341007.6 5.4 28.7 30.0
2017-Oct-18 03:00N 11°12' W 076°24'1716.8 050 / 281007.6 5.4 29.0 31.0
2017-Oct-18 02:00N 11°00' W 076°12'4443.6 050 / 231007.6 5.4 29.0 31.0
2017-Oct-18 01:00N 11°42' W 076°00'7978.9 050 / 231007.2 5.4 29.0 31.0
2017-Oct-18 00:00N 10°24' W 075°48'8 0.6 040 / 281006.1 5.4 28.7 30.0
2017-Oct-17 11:00N 10°18' W 075°42'1313.2 080 / 41007.2 5.4 28.7 30.0
2017-Oct-17 10:00N 10°12' W 075°54'4823.8 020 / 151006.6 5.4 28.7 30.0
2017-Oct-17 08:00N 10°06' W 076°42'1817.7 050 / 151006.6 5.4 28.7 30.0
2017-Oct-17 07:00N 10°06' W 077°00'2424.4 040 / 131006.4 5.4 28.7 30.0
2017-Oct-17 06:00N 10°00' W 077°24'1817.7 030 / 181007.1 5.4 28.7 30.0
2017-Oct-17 05:00N 10°00' W 077°42'2424.4 080 / 201007.9 5.4 28.7 30.0
2017-Oct-17 04:00N 09°54' W 078°06'2423.6 020 / 201008.5 5.4 29.0 30.0
2017-Oct-17 03:00N 09°54' W 078°30'2424.4 030 / 151008.5 5.4 29.0 30.0
2017-Oct-17 02:00N 09°48' W 078°54'1817.7 010 / 131008.5 5.4 29.0 30.0
2017-Oct-17 01:00N 09°48' W 079°12'3030.2 350 / 191008.5 5.4 29.0 30.0
2017-Oct-17 00:00N 09°42' W 079°42'1918.9 340 / 121006.5 5.4 27.3 29.0
2017-Oct-16 23:00N 09°24' W 079°48'35 3.9 330 / 121006.5 5.4 27.3 29.0
2017-Oct-16 14:00N 08°54' W 079°30'8 2.1 310 / 61010.0 5.4 27.3 29.0
2017-Oct-16 10:00N 08°48' W 079°24'1313.4 310 / 101007.5 5.4 27.3 29.0
2017-Oct-16 09:00N 08°36' W 079°18'1212.0 310 / 151007.5 5.4 27.3 29.0
2017-Oct-16 08:00N 08°24' W 079°18'1212.0 310 / 151006.5 5.4 27.3 29.0
2017-Oct-16 07:00N 08°12' W 079°18'1212.0 320 / 151007.0 5.4 26.5 29.0
2017-Oct-16 06:00N 08°00' W 079°18'2512.4 290 / 41008.0 5.4 27.5 29.0
2017-Oct-16 04:00N 07°36' W 079°24'1716.9 230 / 81009.4 5.4 27.0 29.0
2017-Oct-16 03:00N 07°24' W 079°36'8 8.5 250 / 111009.0 5.4 27.0 29.0
2017-Oct-16 02:00N 07°18' W 079°42'1716.9 260 / 151008.6 5.4 27.4 29.0
2017-Oct-16 01:00N 07°06' W 079°54'2221.6 250 / 151008.6 5.4 27.4 29.0
2017-Oct-16 00:00N 06°48' W 080°06'1817.9 260 / 151007.0 5.4 27.4 29.0
2017-Oct-15 23:00N 06°48' W 080°24'1817.9 250 / 151007.0 5.4 27.4 29.0
2017-Oct-15 22:00N 06°48' W 080°42'6616.5 240 / 151006.0 5.4 27.4 29.0
2017-Oct-15 18:00N 06°54' W 081°48'5618.8 280 / 111008.5 5.4 27.4 29.0
2017-Oct-15 15:00N 07°24' W 082°36'2726.6 250 / 111010.3 5.4 28.0 28.0
2017-Oct-15 14:00N 07°36' W 083°00'1716.9 250 / 141010.1 5.4 27.0 28.0
2017-Oct-15 13:00N 07°48' W 083°12'2121.5 270 / 101009.8 5.4 27.0 28.0
2017-Oct-15 12:00N 08°00' W 083°30'2121.5 260 / 141009.1 5.4 26.1 28.0
2017-Oct-15 11:00N 08°12' W 083°48'1716.9 220 / 141007.9 5.4 26.1 28.0
2017-Oct-15 10:00N 08°24' W 084°00'2121.5 230 / 141007.9 5.4 26.1 28.0
2017-Oct-15 09:00N 08°36' W 084°18'2221.6 240 / 141007.9 5.4 26.1 28.0
2017-Oct-15 08:00N 08°54' W 084°30'2524.7 250 / 141007.9 5.4 26.1 28.0
2017-Oct-15 07:00N 09°18' W 084°36'1918.9 230 / 111008.0 5.4 26.4 30.0
2017-Oct-15 06:00N 09°36' W 084°42'8 0.5 250 / 141008.1 5.4 26.6 30.0
2017-Oct-14 14:00N 09°42' W 084°48'1313.4 020 / 51010.1 5.4 28.0 28.0
2017-Oct-14 13:00N 09°30' W 084°54'1313.3 040 / 51009.3 5.4 28.0 28.0
2017-Oct-14 12:00N 09°24' W 085°06'1211.8 230 / 111007.9 5.4 26.7 29.0
2017-Oct-14 11:00N 09°24' W 085°18'2121.4 230 / 111007.9 5.4 26.7 29.0
2017-Oct-14 10:00N 09°36' W 085°36'3216.0 280 / 51007.9 5.4 26.7 29.0
2017-Oct-14 08:00N 09°48' W 086°06'1716.8 130 / 31007.9 5.4 26.7 29.0
2017-Oct-14 07:00N 10°00' W 086°18'2121.4 090 / 71008.1 5.4 27.3 29.0
2017-Oct-14 06:00N 10°12' W 086°36'1918.7 090 / 71008.8 5.4 27.3 29.0
2017-Oct-14 05:00N 10°18' W 086°54'2121.4 080 / 131009.3 5.4 27.3 29.0
2017-Oct-14 04:00N 10°30' W 087°12'5618.6 050 / 241009.1 5.4 28.2 29.0
2017-Oct-14 01:00N 11°00' W 088°00'2121.4 030 / 81008.6 5.4 28.2 29.0
2017-Oct-14 00:00N 11°12' W 088°18'4019.8 060 / 81007.6 5.4 28.2 30.0
2017-Oct-13 22:00N 11°30' W 088°54'2121.3 040 / 81007.6 5.4 28.2 30.0
2017-Oct-13 21:00N 11°42' W 089°12'2121.3 040 / 81007.6 5.4 28.2 30.0
2017-Oct-13 20:00N 11°54' W 089°30'1918.6 040 / 81007.6 5.4 28.2 30.0
2017-Oct-13 19:00N 12°00' W 089°48'1716.8 030 / 121008.0 5.4 28.2 30.0
2017-Oct-13 18:00N 12°12' W 090°00'1918.6 030 / 71009.0 5.4 28.2 30.0
2017-Oct-13 17:00N 12°18' W 090°18'2121.3 030 / 91009.5 5.4 28.2 30.0
2017-Oct-13 16:00N 12°30' W 090°36'2121.3 350 / 61010.1 5.4 29.0 30.0
2017-Oct-13 15:00N 12°42' W 090°54'1918.6 350 / 61010.0 5.4 28.0 29.0
2017-Oct-13 14:00N 12°48' W 091°12'2121.3 010 / 81009.8 5.4 28.0 29.0
2017-Oct-13 13:00N 13°00' W 091°30'2121.2 010 / 81009.5 5.4 28.0 29.0
2017-Oct-13 12:00N 13°12' W 091°48'2121.2 020 / 91008.6 12.0 20.0
2017-Oct-13 11:00N 13°24' W 092°06'1313.1 010 / 101009.6 5.4 27.4 30.0
2017-Oct-13 10:00N 13°30' W 092°18'2121.2 330 / 51009.6 5.4 27.4 30.0
2017-Oct-13 09:00N 13°42' W 092°36'4221.2 340 / 51009.6 5.4 27.4 30.0
2017-Oct-13 07:00N 14°06' W 093°12'1818.5 240 / 51009.6 5.4 27.4 30.0
2017-Oct-13 06:00N 14°12' W 093°30'4221.2 270 / 41009.9 5.4 27.9 30.0
2017-Oct-13 04:00N 14°36' W 094°06'1818.4 360 / 211010.4 5.4 28.0 30.0
2017-Oct-13 03:00N 14°42' W 094°24'4221.1 010 / 301009.6 5.4 28.0 30.0
2017-Oct-13 01:00N 15°06' W 095°00'1818.4 010 / 461007.8 5.4 28.0 30.0
2017-Oct-13 00:00N 15°12' W 095°18'2121.1 020 / 151007.2 5.4 12.0 30.0
2017-Oct-12 23:00N 15°24' W 095°36'2121.1 360 / 151007.2 5.4 12.0 30.0
2017-Oct-12 22:00N 15°36' W 095°54'13 1.3 240 / 151007.2 5.4 12.0 30.0
2017-Oct-12 12:00N 15°42' W 096°06'1313.3 030 / 41009.2 5.4 25.0 30.0
2017-Oct-12 11:00N 15°30' W 096°12'1313.0 310 / 141009.2 5.4 27.4 30.0
2017-Oct-12 10:00N 15°24' W 096°24'1313.0 310 / 141009.2 5.4 27.4 30.0
2017-Oct-12 09:00N 15°18' W 096°36'2423.9 340 / 141009.2 5.4 27.4 30.0
2017-Oct-12 08:00N 15°24' W 097°00'1313.0 310 / 171009.2 5.4 27.4 30.0
2017-Oct-12 07:00N 15°30' W 097°12'1818.3 320 / 71009.7 5.4 27.4 31.0
2017-Oct-12 06:00N 15°36' W 097°30'3718.3 340 / 101010.2 5.4 27.2 31.0
2017-Oct-12 04:00N 15°48' W 098°06'3919.5 010 / 151010.5 5.4 28.0 31.0
2017-Oct-12 02:00N 16°06' W 098°42'1818.3 360 / 91010.0 5.4 28.0 31.0
2017-Oct-12 01:00N 16°12' W 099°00'2626.0 120 / 61009.5 5.4 28.0 31.0
2017-Oct-12 00:00N 16°24' W 099°24'2121.0 190 / 61007.0 5.4 26.8 30.0
2017-Oct-11 23:00N 16°36' W 099°42'24 2.0 150 / 61007.0 5.4 26.8 30.0
2017-Oct-11 11:00N 16°42' W 100°06'1717.2 060 / 151008.0 5.4 26.8 30.0
2017-Oct-11 10:00N 16°42' W 100°24'3618.2 060 / 151008.0 5.4 26.8 30.0
2017-Oct-11 08:00N 16°54' W 101°00'3618.2 090 / 151008.0 5.4 26.8 30.0
2017-Oct-11 06:00N 17°06' W 101°36'3919.4 090 / 171009.3 5.4 28.5 30.0
2017-Oct-11 04:00N 17°24' W 102°12'1818.2 060 / 61009.0 5.4 29.0 30.0
2017-Oct-11 03:00N 17°30' W 102°30'4421.9 180 / 31008.5 5.4 29.0 30.0
2017-Oct-11 01:00N 17°48' W 103°12'2120.9 230 / 31007.5 5.4 29.0 30.0
2017-Oct-11 00:00N 18°00' W 103°30'1818.1 210 / 81005.9 5.4 28.7 30.0
2017-Oct-10 23:00N 18°06' W 103°48'2120.9 210 / 81005.9 5.4 28.7 30.0
2017-Oct-10 22:00N 18°18' W 104°06'2120.9 210 / 81005.9 5.4 28.7 30.0
2017-Oct-10 21:00N 18°30' W 104°24'2120.9 210 / 81006.9 5.4 28.7 30.0
2017-Oct-10 20:00N 18°42' W 104°42'2120.8 1006.9 5.4 28.7 30.0
2017-Oct-10 19:00N 18°54' W 105°00'4039.8 160 / 31007.4 5.4 28.7 30.0
2017-Oct-10 18:00N 19°30' W 105°18'2814.1 030 / 41008.2 5.4 28.0 30.0
2017-Oct-10 16:00N 19°30' W 105°48'2524.7 350 / 241008.5 5.4 28.0 30.0
2017-Oct-10 15:00N 19°48' W 106°06'1312.8 350 / 241008.5 5.4 28.0 30.0
2017-Oct-10 14:00N 19°54' W 106°18'4924.7 360 / 221008.5 5.4 28.0 30.0
2017-Oct-10 12:00N 20°30' W 106°54'2120.7 340 / 141008.5 5.4 26.9 29.0
2017-Oct-10 11:00N 20°42' W 107°12'2120.7 350 / 141008.5 5.4 26.9 29.0
2017-Oct-10 10:00N 20°54' W 107°30'1616.4 330 / 91008.5 5.4 26.9 29.0
2017-Oct-10 09:00N 21°06' W 107°42'2928.7 330 / 91008.5 5.4 26.9 29.0
2017-Oct-10 08:00N 21°24' W 108°06'1616.4 290 / 111008.7 5.4 26.9 29.0
2017-Oct-10 07:00N 21°36' W 108°18'4522.5 270 / 121009.0 5.4 26.9 29.0
2017-Oct-10 05:00N 22°06' W 108°54'2120.5 280 / 141009.5 5.4 27.0 29.0
2017-Oct-10 04:00N 22°18' W 109°12'2120.5 280 / 151009.5 5.4 27.0 29.0
2017-Oct-10 03:00N 22°30' W 109°30'   280 / 181009.5 5.4 27.0 29.0
Track history (hours):
 
Tides and Currents Weather Stations Pressure Air Temp Water Temp Dewpoint Dewpoint Depression Visibility Wind Speed Wind Dir Waves Ship Positions

Norwegian Pearl

Last reported at 2017-Oct-20 02:00 UTC. Time now 2017-Oct-20 03:38 UTC.
Position N 22°36' W 085°54'.

Type: Ship. MMSI: 309653000.

Wind from 050 at 30 knots

Barometer 1014.6 mb
Air temperature 28.0 ° C
Visibility: greater than 5.4 NM
Water temperature 30.0 ° C

Date/timePositionNaut miles runAvg speedWind from/ knotsBaromVisibWave heightAir tempDewpointWater temp
2017-Oct-20 02:00N 22°36' W 085°54'1313.2 050 / 301014.6 5.4 28.0 30.0
2017-Oct-20 01:00N 22°24' W 085°48'2929.2 050 / 291013.7 5.4 28.0 30.0
2017-Oct-20 00:00N 22°00' W 085°30'2121.2 060 / 291012.3 5.4 27.9 30.0
2017-Oct-19 23:00N 21°42' W 085°18'2121.2 040 / 181012.3 5.4 27.9 30.0
2017-Oct-19 22:00N 21°24' W 085°06'2120.6 030 / 101012.3 5.4 27.9 30.0
2017-Oct-19 21:00N 21°12' W 084°48'1616.4 070 / 151012.3 5.4 27.9 30.0
2017-Oct-19 20:00N 21°00' W 084°36'2524.6 040 / 151012.3 5.4 27.9 30.0
2017-Oct-19 19:00N 20°42' W 084°18'2524.7 060 / 101012.6 5.4 28.4 30.0
2017-Oct-19 18:00N 20°24' W 084°00'2120.7 060 / 131013.2 5.4 28.0 30.0
2017-Oct-19 17:00N 20°12' W 083°42'7919.7 070 / 101013.9 5.4 27.9 30.0
2017-Oct-19 13:00N 19°12' W 082°48'7474.0 070 / 161012.9 5.4 28.0 30.0
2017-Oct-19 12:00N 18°00' W 082°30'4949.3 070 / 321011.2 5.4 27.6 30.0
2017-Oct-19 11:00N 18°48' W 082°18'1716.5 070 / 321011.2 5.4 27.6 30.0
2017-Oct-19 10:00N 18°36' W 082°06'1716.5 050 / 321011.2 5.4 27.6 30.0
2017-Oct-19 09:00N 18°24' W 081°54'1716.5 070 / 221011.2 5.4 27.6 30.0
2017-Oct-19 08:00N 18°12' W 081°42'1716.6 060 / 221011.2 5.4 27.6 30.0
2017-Oct-19 07:00N 18°00' W 081°30'1716.6 070 / 181011.6 5.4 28.8 30.0
2017-Oct-19 06:00N 17°48' W 081°18'7069.6 060 / 221012.5 5.4 28.8 30.0
2017-Oct-19 05:00N 17°36' W 080°06'4747.3 060 / 221012.9 5.4 28.8 30.0
2017-Oct-19 04:00N 17°24' W 080°54'1716.6 050 / 231013.0 5.4 29.0 30.0
2017-Oct-19 03:00N 17°12' W 080°42'2121.0 060 / 301012.8 5.4 29.0 30.0
2017-Oct-19 02:00N 17°00' W 080°24'1716.6 060 / 201012.4 5.4 29.0 30.0
2017-Oct-19 01:00N 16°48' W 080°12'2121.4 080 / 241011.6 5.4 29.2 30.0
2017-Oct-19 00:00N 16°30' W 080°00'1716.6 070 / 241009.0 5.4 29.2 30.0
2017-Oct-18 23:00N 16°18' W 079°48'2121.4 070 / 241009.0 5.4 29.2 30.0
2017-Oct-18 22:00N 16°00' W 079°36'3014.8 070 / 271009.0 5.4 29.2 30.0
2017-Oct-18 20:00N 15°36' W 079°18'1716.7 080 / 271008.4 5.4 29.2 30.0
2017-Oct-18 19:00N 15°24' W 079°06'1918.9 090 / 301008.9 5.4 29.2 30.0
2017-Oct-18 18:00N 15°06' W 079°00'1716.7 070 / 341009.6 5.4 28.7 30.0
2017-Oct-18 17:00N 14°54' W 078°48'6416.1 080 / 311010.6 5.4 29.2 30.0
2017-Oct-18 13:00N 14°00' W 078°12'2121.4 080 / 371007.5 10.0 30.0
2017-Oct-18 12:00N 13°42' W 078°00'1918.9 080 / 371007.5 10.0 30.0
2017-Oct-18 11:00N 13°24' W 077°54'1716.7 070 / 371007.5 10.0 30.0
2017-Oct-18 10:00N 13°12' W 077°42'2121.5 070 / 351007.2 5.4 28.7 30.0
2017-Oct-18 09:00N 12°54' W 077°30'1313.4 070 / 351007.2 5.4 28.7 30.0
2017-Oct-18 08:00N 12°42' W 077°24'2121.5 070 / 351007.2 5.4 28.7 30.0
2017-Oct-18 07:00N 12°24' W 077°12'2121.5 070 / 311007.0 5.4 28.7 30.0
2017-Oct-18 06:00N 12°06' W 077°00'6421.5 070 / 341007.6 5.4 28.7 30.0
2017-Oct-18 03:00N 11°12' W 076°24'1716.8 050 / 281007.6 5.4 29.0 31.0
2017-Oct-18 02:00N 11°00' W 076°12'4443.6 050 / 231007.6 5.4 29.0 31.0
2017-Oct-18 01:00N 11°42' W 076°00'7978.9 050 / 231007.2 5.4 29.0 31.0
2017-Oct-18 00:00N 10°24' W 075°48'8 0.6 040 / 281006.1 5.4 28.7 30.0
2017-Oct-17 11:00N 10°18' W 075°42'1313.2 080 / 41007.2 5.4 28.7 30.0
2017-Oct-17 10:00N 10°12' W 075°54'4823.8 020 / 151006.6 5.4 28.7 30.0
2017-Oct-17 08:00N 10°06' W 076°42'1817.7 050 / 151006.6 5.4 28.7 30.0
2017-Oct-17 07:00N 10°06' W 077°00'2424.4 040 / 131006.4 5.4 28.7 30.0
2017-Oct-17 06:00N 10°00' W 077°24'1817.7 030 / 181007.1 5.4 28.7 30.0
2017-Oct-17 05:00N 10°00' W 077°42'2424.4 080 / 201007.9 5.4 28.7 30.0
2017-Oct-17 04:00N 09°54' W 078°06'2423.6 020 / 201008.5 5.4 29.0 30.0
2017-Oct-17 03:00N 09°54' W 078°30'2424.4 030 / 151008.5 5.4 29.0 30.0
2017-Oct-17 02:00N 09°48' W 078°54'1817.7 010 / 131008.5 5.4 29.0 30.0
2017-Oct-17 01:00N 09°48' W 079°12'3030.2 350 / 191008.5 5.4 29.0 30.0
2017-Oct-17 00:00N 09°42' W 079°42'1918.9 340 / 121006.5 5.4 27.3 29.0
2017-Oct-16 23:00N 09°24' W 079°48'35 3.9 330 / 121006.5 5.4 27.3 29.0
2017-Oct-16 14:00N 08°54' W 079°30'8 2.1 310 / 61010.0 5.4 27.3 29.0
2017-Oct-16 10:00N 08°48' W 079°24'1313.4 310 / 101007.5 5.4 27.3 29.0
2017-Oct-16 09:00N 08°36' W 079°18'1212.0 310 / 151007.5 5.4 27.3 29.0
2017-Oct-16 08:00N 08°24' W 079°18'1212.0 310 / 151006.5 5.4 27.3 29.0
2017-Oct-16 07:00N 08°12' W 079°18'1212.0 320 / 151007.0 5.4 26.5 29.0
2017-Oct-16 06:00N 08°00' W 079°18'2512.4 290 / 41008.0 5.4 27.5 29.0
2017-Oct-16 04:00N 07°36' W 079°24'1716.9 230 / 81009.4 5.4 27.0 29.0
2017-Oct-16 03:00N 07°24' W 079°36'8 8.5 250 / 111009.0 5.4 27.0 29.0
2017-Oct-16 02:00N 07°18' W 079°42'1716.9 260 / 151008.6 5.4 27.4 29.0
2017-Oct-16 01:00N 07°06' W 079°54'2221.6 250 / 151008.6 5.4 27.4 29.0
2017-Oct-16 00:00N 06°48' W 080°06'1817.9 260 / 151007.0 5.4 27.4 29.0
2017-Oct-15 23:00N 06°48' W 080°24'1817.9 250 / 151007.0 5.4 27.4 29.0
2017-Oct-15 22:00N 06°48' W 080°42'6616.5 240 / 151006.0 5.4 27.4 29.0
2017-Oct-15 18:00N 06°54' W 081°48'5618.8 280 / 111008.5 5.4 27.4 29.0
2017-Oct-15 15:00N 07°24' W 082°36'2726.6 250 / 111010.3 5.4 28.0 28.0
2017-Oct-15 14:00N 07°36' W 083°00'1716.9 250 / 141010.1 5.4 27.0 28.0
2017-Oct-15 13:00N 07°48' W 083°12'2121.5 270 / 101009.8 5.4 27.0 28.0
2017-Oct-15 12:00N 08°00' W 083°30'2121.5 260 / 141009.1 5.4 26.1 28.0
2017-Oct-15 11:00N 08°12' W 083°48'1716.9 220 / 141007.9 5.4 26.1 28.0
2017-Oct-15 10:00N 08°24' W 084°00'2121.5 230 / 141007.9 5.4 26.1 28.0
2017-Oct-15 09:00N 08°36' W 084°18'2221.6 240 / 141007.9 5.4 26.1 28.0
2017-Oct-15 08:00N 08°54' W 084°30'2524.7 250 / 141007.9 5.4 26.1 28.0
2017-Oct-15 07:00N 09°18' W 084°36'1918.9 230 / 111008.0 5.4 26.4 30.0
2017-Oct-15 06:00N 09°36' W 084°42'8 0.5 250 / 141008.1 5.4 26.6 30.0
2017-Oct-14 14:00N 09°42' W 084°48'1313.4 020 / 51010.1 5.4 28.0 28.0
2017-Oct-14 13:00N 09°30' W 084°54'1313.3 040 / 51009.3 5.4 28.0 28.0
2017-Oct-14 12:00N 09°24' W 085°06'1211.8 230 / 111007.9 5.4 26.7 29.0
2017-Oct-14 11:00N 09°24' W 085°18'2121.4 230 / 111007.9 5.4 26.7 29.0
2017-Oct-14 10:00N 09°36' W 085°36'3216.0 280 / 51007.9 5.4 26.7 29.0
2017-Oct-14 08:00N 09°48' W 086°06'1716.8 130 / 31007.9 5.4 26.7 29.0
2017-Oct-14 07:00N 10°00' W 086°18'2121.4 090 / 71008.1 5.4 27.3 29.0
2017-Oct-14 06:00N 10°12' W 086°36'1918.7 090 / 71008.8 5.4 27.3 29.0
2017-Oct-14 05:00N 10°18' W 086°54'2121.4 080 / 131009.3 5.4 27.3 29.0
2017-Oct-14 04:00N 10°30' W 087°12'5618.6 050 / 241009.1 5.4 28.2 29.0
2017-Oct-14 01:00N 11°00' W 088°00'2121.4 030 / 81008.6 5.4 28.2 29.0
2017-Oct-14 00:00N 11°12' W 088°18'4019.8 060 / 81007.6 5.4 28.2 30.0
2017-Oct-13 22:00N 11°30' W 088°54'2121.3 040 / 81007.6 5.4 28.2 30.0
2017-Oct-13 21:00N 11°42' W 089°12'2121.3 040 / 81007.6 5.4 28.2 30.0
2017-Oct-13 20:00N 11°54' W 089°30'1918.6 040 / 81007.6 5.4 28.2 30.0
2017-Oct-13 19:00N 12°00' W 089°48'1716.8 030 / 121008.0 5.4 28.2 30.0
2017-Oct-13 18:00N 12°12' W 090°00'1918.6 030 / 71009.0 5.4 28.2 30.0
2017-Oct-13 17:00N 12°18' W 090°18'2121.3 030 / 91009.5 5.4 28.2 30.0
2017-Oct-13 16:00N 12°30' W 090°36'2121.3 350 / 61010.1 5.4 29.0 30.0
2017-Oct-13 15:00N 12°42' W 090°54'1918.6 350 / 61010.0 5.4 28.0 29.0
2017-Oct-13 14:00N 12°48' W 091°12'2121.3 010 / 81009.8 5.4 28.0 29.0
2017-Oct-13 13:00N 13°00' W 091°30'2121.2 010 / 81009.5 5.4 28.0 29.0
2017-Oct-13 12:00N 13°12' W 091°48'2121.2 020 / 91008.6 12.0 20.0
2017-Oct-13 11:00N 13°24' W 092°06'1313.1 010 / 101009.6 5.4 27.4 30.0
2017-Oct-13 10:00N 13°30' W 092°18'2121.2 330 / 51009.6 5.4 27.4 30.0
2017-Oct-13 09:00N 13°42' W 092°36'4221.2 340 / 51009.6 5.4 27.4 30.0
2017-Oct-13 07:00N 14°06' W 093°12'1818.5 240 / 51009.6 5.4 27.4 30.0
2017-Oct-13 06:00N 14°12' W 093°30'4221.2 270 / 41009.9 5.4 27.9 30.0
2017-Oct-13 04:00N 14°36' W 094°06'1818.4 360 / 211010.4 5.4 28.0 30.0
2017-Oct-13 03:00N 14°42' W 094°24'4221.1 010 / 301009.6 5.4 28.0 30.0
2017-Oct-13 01:00N 15°06' W 095°00'1818.4 010 / 461007.8 5.4 28.0 30.0
2017-Oct-13 00:00N 15°12' W 095°18'2121.1 020 / 151007.2 5.4 12.0 30.0
2017-Oct-12 23:00N 15°24' W 095°36'2121.1 360 / 151007.2 5.4 12.0 30.0
2017-Oct-12 22:00N 15°36' W 095°54'13 1.3 240 / 151007.2 5.4 12.0 30.0
2017-Oct-12 12:00N 15°42' W 096°06'1313.3 030 / 41009.2 5.4 25.0 30.0
2017-Oct-12 11:00N 15°30' W 096°12'1313.0 310 / 141009.2 5.4 27.4 30.0
2017-Oct-12 10:00N 15°24' W 096°24'1313.0 310 / 141009.2 5.4 27.4 30.0
2017-Oct-12 09:00N 15°18' W 096°36'2423.9 340 / 141009.2 5.4 27.4 30.0
2017-Oct-12 08:00N 15°24' W 097°00'1313.0 310 / 171009.2 5.4 27.4 30.0
2017-Oct-12 07:00N 15°30' W 097°12'1818.3 320 / 71009.7 5.4 27.4 31.0
2017-Oct-12 06:00N 15°36' W 097°30'3718.3 340 / 101010.2 5.4 27.2 31.0
2017-Oct-12 04:00N 15°48' W 098°06'3919.5 010 / 151010.5 5.4 28.0 31.0
2017-Oct-12 02:00N 16°06' W 098°42'1818.3 360 / 91010.0 5.4 28.0 31.0
2017-Oct-12 01:00N 16°12' W 099°00'2626.0 120 / 61009.5 5.4 28.0 31.0
2017-Oct-12 00:00N 16°24' W 099°24'2121.0 190 / 61007.0 5.4 26.8 30.0
2017-Oct-11 23:00N 16°36' W 099°42'24 2.0 150 / 61007.0 5.4 26.8 30.0
2017-Oct-11 11:00N 16°42' W 100°06'1717.2 060 / 151008.0 5.4 26.8 30.0
2017-Oct-11 10:00N 16°42' W 100°24'3618.2 060 / 151008.0 5.4 26.8 30.0
2017-Oct-11 08:00N 16°54' W 101°00'3618.2 090 / 151008.0 5.4 26.8 30.0
2017-Oct-11 06:00N 17°06' W 101°36'3919.4 090 / 171009.3 5.4 28.5 30.0
2017-Oct-11 04:00N 17°24' W 102°12'1818.2 060 / 61009.0 5.4 29.0 30.0
2017-Oct-11 03:00N 17°30' W 102°30'4421.9 180 / 31008.5 5.4 29.0 30.0
2017-Oct-11 01:00N 17°48' W 103°12'2120.9 230 / 31007.5 5.4 29.0 30.0
2017-Oct-11 00:00N 18°00' W 103°30'1818.1 210 / 81005.9 5.4 28.7 30.0
2017-Oct-10 23:00N 18°06' W 103°48'2120.9 210 / 81005.9 5.4 28.7 30.0
2017-Oct-10 22:00N 18°18' W 104°06'2120.9 210 / 81005.9 5.4 28.7 30.0
2017-Oct-10 21:00N 18°30' W 104°24'2120.9 210 / 81006.9 5.4 28.7 30.0
2017-Oct-10 20:00N 18°42' W 104°42'2120.8 1006.9 5.4 28.7 30.0
2017-Oct-10 19:00N 18°54' W 105°00'4039.8 160 / 31007.4 5.4 28.7 30.0
2017-Oct-10 18:00N 19°30' W 105°18'2814.1 030 / 41008.2 5.4 28.0 30.0
2017-Oct-10 16:00N 19°30' W 105°48'2524.7 350 / 241008.5 5.4 28.0 30.0
2017-Oct-10 15:00N 19°48' W 106°06'1312.8 350 / 241008.5 5.4 28.0 30.0
2017-Oct-10 14:00N 19°54' W 106°18'4924.7 360 / 221008.5 5.4 28.0 30.0
2017-Oct-10 12:00N 20°30' W 106°54'2120.7 340 / 141008.5 5.4 26.9 29.0
2017-Oct-10 11:00N 20°42' W 107°12'2120.7 350 / 141008.5 5.4 26.9 29.0
2017-Oct-10 10:00N 20°54' W 107°30'1616.4 330 / 91008.5 5.4 26.9 29.0
2017-Oct-10 09:00N 21°06' W 107°42'2928.7 330 / 91008.5 5.4 26.9 29.0
2017-Oct-10 08:00N 21°24' W 108°06'1616.4 290 / 111008.7 5.4 26.9 29.0
2017-Oct-10 07:00N 21°36' W 108°18'4522.5 270 / 121009.0 5.4 26.9 29.0
2017-Oct-10 05:00N 22°06' W 108°54'2120.5 280 / 141009.5 5.4 27.0 29.0
2017-Oct-10 04:00N 22°18' W 109°12'2120.5 280 / 151009.5 5.4 27.0 29.0
2017-Oct-10 03:00N 22°30' W 109°30'   280 / 181009.5 5.4 27.0 29.0

Dump ship's entire track history